createdAt,value
2022-09-03T00:00:05.308Z,0
2022-09-03T00:05:07.384Z,0
2022-09-03T00:10:09.174Z,0.88715
2022-09-03T00:15:12.315Z,0
2022-09-03T00:20:14.107Z,0
2022-09-03T00:25:15.995Z,0.88715
2022-09-03T00:30:17.987Z,0
2022-09-03T00:35:20.247Z,0.88715
2022-09-03T00:40:22.327Z,0
2022-09-03T00:45:24.149Z,0
2022-09-03T00:50:27.485Z,0
2022-09-03T00:55:29.363Z,0
2022-09-03T01:00:31.062Z,0.88715
2022-09-03T01:05:32.942Z,0
2022-09-03T01:10:34.877Z,0.88715
2022-09-03T01:15:36.633Z,0.88715
2022-09-03T01:20:38.489Z,0
2022-09-03T01:25:40.142Z,0
2022-09-03T01:30:41.740Z,0
2022-09-03T01:35:43.585Z,0
2022-09-03T01:40:45.387Z,0
2022-09-03T01:45:51.563Z,0
2022-09-03T01:50:54.323Z,0.88715
2022-09-03T01:55:56.147Z,0.88715
2022-09-03T02:00:57.929Z,0.88715
2022-09-03T02:06:00.755Z,0
2022-09-03T02:11:02.589Z,0
2022-09-03T02:16:05.574Z,0
2022-09-03T02:21:07.405Z,0
2022-09-03T02:26:09.396Z,0
2022-09-03T02:31:11.329Z,0
2022-09-03T02:36:14.003Z,0.88715
2022-09-03T02:41:15.767Z,0
2022-09-03T02:46:17.423Z,0.88715
2022-09-03T02:51:19.113Z,0
2022-09-03T02:56:20.583Z,0
2022-09-03T03:01:23.802Z,0.88715
2022-09-03T03:06:26.994Z,0
2022-09-03T03:11:28.745Z,0
2022-09-03T03:16:30.674Z,0.88715
2022-09-03T03:21:32.680Z,0
2022-09-03T03:26:34.444Z,0.88715
2022-09-03T03:31:41.063Z,0.88715
2022-09-03T03:36:43.336Z,0
2022-09-03T03:41:44.806Z,0
2022-09-03T03:46:46.419Z,0.88715
2022-09-03T03:51:48.498Z,0.88715
2022-09-03T03:56:55.577Z,1.16185
2022-09-03T04:01:57.639Z,0.5333
2022-09-03T04:06:59.553Z,1.71845
2022-09-03T04:12:01.192Z,4.59225
2022-09-03T04:17:03.004Z,12.90965
2022-09-03T04:22:04.752Z,25.26595
2022-09-03T04:27:06.419Z,41.66115
2022-09-03T04:32:08.217Z,60.5645
2022-09-03T04:37:10.148Z,87.2319
2022-09-03T04:42:11.569Z,113.8993
2022-09-03T04:47:13.251Z,143.68335
2022-09-03T04:52:15.091Z,173.4674
2022-09-03T04:57:16.549Z,204.0444
2022-09-03T05:02:18.084Z,232.48215
2022-09-03T05:07:20.394Z,256.6414
2022-09-03T05:12:23.792Z,290.5195
2022-09-03T05:17:25.624Z,317.97985
2022-09-03T05:22:27.165Z,341.71505
2022-09-03T05:27:28.735Z,365.68985
2022-09-03T05:32:30.320Z,385.62575
2022-09-03T05:37:32.162Z,410.1539
2022-09-03T05:42:33.626Z,430.8466
2022-09-03T05:47:35.080Z,465.2419
2022-09-03T05:52:36.668Z,494.8795
2022-09-03T05:57:38.098Z,554.7252
2022-09-03T06:02:39.697Z,590.65125
2022-09-03T06:07:41.783Z,622.4091
2022-09-03T06:12:43.194Z,640.7781
2022-09-03T06:17:44.737Z,673.38405
2022-09-03T06:22:46.422Z,696.6952
2022-09-03T06:27:47.860Z,726.36895
2022-09-03T06:32:49.385Z,734.46575
2022-09-03T06:37:51.316Z,767.8095
2022-09-03T06:42:52.859Z,746.2154
2022-09-03T06:47:54.332Z,792.96515
2022-09-03T06:52:55.797Z,812.2564
2022-09-03T06:57:57.221Z,805.3043
2022-09-03T07:02:59.090Z,860.9818
2022-09-03T07:08:01.269Z,883.9982
2022-09-03T07:13:03.054Z,890.80385
2022-09-03T07:18:04.847Z,917.49025
2022-09-03T07:23:06.845Z,946.50035
2022-09-03T07:28:08.719Z,1101.36655
2022-09-03T07:33:10.155Z,1117.9652
2022-09-03T07:38:12.242Z,1155.0531
2022-09-03T07:43:14.089Z,1172.49985
2022-09-03T07:48:15.881Z,1199.7396
2022-09-03T07:53:17.705Z,1223.76955
2022-09-03T07:58:19.746Z,1241.27145
2022-09-03T08:03:21.203Z,1267.9027
2022-09-03T08:08:22.842Z,1283.4498
2022-09-03T08:13:24.852Z,1313.308
2022-09-03T08:18:28.904Z,1339.4962
2022-09-03T08:23:31.451Z,1393.0706
2022-09-03T08:28:33.330Z,1404.8374
2022-09-03T08:33:35.317Z,1450.9615
2022-09-03T08:38:37.329Z,1475.0656
2022-09-03T08:43:38.833Z,1497.52865
2022-09-03T08:48:40.410Z,1519.05045
2022-09-03T08:53:41.901Z,1557.1709
2022-09-03T08:58:43.491Z,1572.53355
2022-09-03T09:03:45.041Z,1609.97135
2022-09-03T09:08:47.125Z,1649.4191
2022-09-03T09:13:48.640Z,1681.3424
2022-09-03T09:18:50.181Z,1713.1554
2022-09-03T09:23:51.884Z,1746.55615
2022-09-03T09:28:53.450Z,1776.7814
2022-09-03T09:33:55.472Z,1821.02485
2022-09-03T09:38:57.595Z,1846.75285
2022-09-03T09:43:59.362Z,1885.01975
2022-09-03T09:49:01.247Z,1892.2666
2022-09-03T09:54:03.332Z,1922.1248
2022-09-03T09:59:05.056Z,1952.03815
2022-09-03T10:04:07.108Z,1973.21005
2022-09-03T10:09:09.036Z,2015.40555
2022-09-03T10:14:10.809Z,2051.73665
2022-09-03T10:19:16.633Z,2075.1771
2022-09-03T10:24:18.428Z,2103.61485
2022-09-03T10:29:20.116Z,2144.6485
2022-09-03T10:34:22.184Z,2159.956
2022-09-03T10:39:24.250Z,2152.1368
2022-09-03T10:44:26.074Z,2200.51045
2022-09-03T10:49:27.986Z,2226.3849
2022-09-03T10:54:29.757Z,2233.8732
2022-09-03T10:59:31.622Z,2239.9962
2022-09-03T11:04:37.988Z,2273.6347
2022-09-03T11:09:39.962Z,2284.9033
2022-09-03T11:14:41.359Z,2296.83555
2022-09-03T11:19:42.768Z,2299.7126
2022-09-03T11:24:44.332Z,2295.61855
2022-09-03T11:29:45.905Z,2309.9848
2022-09-03T11:34:47.418Z,2321.41885
2022-09-03T11:39:49.111Z,2314.2633
2022-09-03T11:44:51.655Z,2318.3022
2022-09-03T11:49:53.460Z,2347.45875
2022-09-03T11:54:55.146Z,2328.86915
2022-09-03T11:59:56.663Z,2339.51025
2022-09-03T12:04:58.304Z,2340.9117
2022-09-03T12:10:00.194Z,2320.05355
2022-09-03T12:15:01.917Z,2317.0472
2022-09-03T12:20:03.759Z,2618.8538
2022-09-03T12:25:06.178Z,2595.4495
2022-09-03T12:30:07.909Z,2561.09035
2022-09-03T12:35:09.707Z,2571.71245
2022-09-03T12:40:11.737Z,2557.6391
2022-09-03T12:45:13.460Z,2485.27165
2022-09-03T12:50:16.825Z,2481.2309
2022-09-03T12:55:18.730Z,2478.44515
2022-09-03T13:00:20.285Z,2434.4413
2022-09-03T13:05:21.757Z,2401.7232
2022-09-03T13:10:23.524Z,2345.9354
2022-09-03T13:15:25.047Z,2317.7354
2022-09-03T13:20:26.504Z,2250.88245
2022-09-03T13:25:28.139Z,2186.26005
2022-09-03T13:30:29.988Z,2106.95765
2022-09-03T13:35:31.483Z,2026.30895
2022-09-03T13:40:33.272Z,1927.7533
2022-09-03T13:45:34.946Z,1834.638
2022-09-03T13:50:36.528Z,1770.80855
2022-09-03T13:55:38.114Z,1670.7773
2022-09-03T14:00:39.634Z,1608.79235
2022-09-03T14:05:41.240Z,1534.9493
2022-09-03T14:10:43.245Z,1447.957
2022-09-03T14:15:45.755Z,1351.6699
2022-09-03T14:20:47.494Z,1278.06645
2022-09-03T14:25:49.321Z,1198.17455
2022-09-03T14:30:55.683Z,1117.2311
2022-09-03T14:35:57.790Z,1019.89245
2022-09-03T14:40:59.569Z,919.0131
2022-09-03T14:46:05.805Z,820.32815
2022-09-03T14:51:08.191Z,709.47135
2022-09-03T14:56:12.935Z,590.03855
2022-09-03T15:01:14.837Z,481.37615
2022-09-03T15:06:16.352Z,376.9181
2022-09-03T15:11:18.486Z,285.29555
2022-09-03T15:16:20.278Z,220.91145
2022-09-03T15:21:22.034Z,179.19415
2022-09-03T15:26:23.712Z,142.57305
2022-09-03T15:31:25.598Z,99.3746
2022-09-03T15:36:27.489Z,80.9643
2022-09-03T15:41:29.831Z,75.2825
2022-09-03T15:46:31.601Z,53.05905
2022-09-03T15:51:33.678Z,35.79675
2022-09-03T15:56:35.552Z,16.8934
2022-09-03T16:01:37.292Z,6.67635
2022-09-03T16:06:39.032Z,3.4369
2022-09-03T16:11:41.061Z,1.54065
2022-09-03T16:16:42.555Z,2.3237
2022-09-03T16:21:45.855Z,0
2022-09-03T16:26:47.463Z,0.88715
2022-09-03T16:31:49.044Z,0.88715
2022-09-03T16:36:50.624Z,0.88715
2022-09-03T16:41:52.470Z,0
2022-09-03T16:46:54.116Z,0
2022-09-03T16:51:55.772Z,0.88715
2022-09-03T16:56:57.775Z,0
2022-09-03T17:01:59.630Z,0.88715
2022-09-03T17:07:01.467Z,0.88715
2022-09-03T17:12:03.391Z,0
2022-09-03T17:17:05.045Z,0.88715
2022-09-03T17:22:06.848Z,0
2022-09-03T17:27:08.658Z,0.88715
2022-09-03T17:32:10.441Z,0.88715
2022-09-03T17:37:12.293Z,0.88715
2022-09-03T17:42:14.369Z,0
2022-09-03T17:47:17.828Z,0
2022-09-03T17:52:19.719Z,0.88715
2022-09-03T17:57:21.657Z,0.88715
2022-09-03T18:02:23.412Z,0
2022-09-03T18:07:25.296Z,0
2022-09-03T18:12:27.507Z,0.88715
2022-09-03T18:17:29.433Z,0
2022-09-03T18:22:31.224Z,0.88715
2022-09-03T18:27:33.103Z,0
2022-09-03T18:32:34.888Z,0
2022-09-03T18:37:36.767Z,0.88715
2022-09-03T18:42:38.791Z,0.88715
2022-09-03T18:48:04.679Z,0
2022-09-03T18:53:08.650Z,0
2022-09-03T18:58:10.389Z,0
2022-09-03T19:03:12.086Z,0
2022-09-03T19:08:17.471Z,0.88715
2022-09-03T19:13:20.086Z,0.88715
2022-09-03T19:18:22.245Z,0.88715
2022-09-03T19:23:24.145Z,0.88715
2022-09-03T19:28:26.071Z,0.88715
2022-09-03T19:33:27.832Z,0
2022-09-03T19:38:29.530Z,0.88715
2022-09-03T19:43:36.157Z,0.88715
2022-09-03T19:48:38.836Z,0.88715
2022-09-03T19:53:40.530Z,0
2022-09-03T19:58:43.700Z,0.88715
2022-09-03T20:03:45.704Z,0
2022-09-03T20:08:47.138Z,0.88715
2022-09-03T20:13:49.133Z,0.88715
2022-09-03T20:18:50.728Z,0
2022-09-03T20:23:52.425Z,0.88715
2022-09-03T20:28:53.962Z,0
2022-09-03T20:33:55.466Z,0.88715
2022-09-03T20:38:57.332Z,0.88715
2022-09-03T20:43:59.825Z,0.88715
2022-09-03T20:49:01.575Z,0.88715
2022-09-03T20:54:03.325Z,0.88715
2022-09-03T20:59:05.208Z,0
2022-09-03T21:04:07.100Z,0.88715
2022-09-03T21:09:08.881Z,0.88715
2022-09-03T21:14:10.928Z,0
2022-09-03T21:19:12.665Z,0
2022-09-03T21:24:14.439Z,0.88715
2022-09-03T21:29:20.870Z,0
2022-09-03T21:34:23.784Z,0.88715
2022-09-03T21:39:25.655Z,0.88715
2022-09-03T21:44:27.689Z,0
2022-09-03T21:49:29.471Z,0
2022-09-03T21:54:31.361Z,0
2022-09-03T21:59:33.276Z,0
2022-09-03T22:04:35.012Z,0.88715
2022-09-03T22:09:36.809Z,0
2022-09-03T22:14:38.875Z,0.88715
2022-09-03T22:19:40.628Z,0.88715
2022-09-03T22:24:42.404Z,0.88715
2022-09-03T22:29:44.032Z,0.88715
2022-09-03T22:34:45.613Z,0
2022-09-03T22:39:47.125Z,0.88715
2022-09-03T22:44:48.861Z,0
2022-09-03T22:49:50.505Z,0
2022-09-03T22:54:52.397Z,0.88715
2022-09-03T22:59:54.033Z,0
2022-09-03T23:04:55.920Z,0
2022-09-03T23:09:57.773Z,0
2022-09-03T23:14:59.540Z,0.88715
2022-09-03T23:20:01.276Z,0
2022-09-03T23:25:02.749Z,0.88715
2022-09-03T23:30:04.481Z,0
2022-09-03T23:35:05.959Z,0
2022-09-03T23:40:07.803Z,0.88715
2022-09-03T23:45:10.277Z,0.88715
2022-09-03T23:50:17.360Z,0.88715
2022-09-03T23:55:18.849Z,0
